MMCU/CUU METAR and TAF weather

Enter ICAO airport designator
Station Type Date Time Source
MMCU METAR 2023/01/30 02:41 UTC NOAA

MMCU 300241Z 23010KT 10SM FEW035 BKN200 17/M04 A3004 RMK SLP132 52023 954 8/508


Station Type Date Time Source
MMCU Decoded METAR 2023/01/30 02:41 UTC NOAA

Chihuahua International Airport, Mexico (MMCU) 28-42N 105-58W
Jan 29, 2023 - 09:41 PM EST / 2023.01.30 0241 UTC
Wind: from the SW (230 degrees) at 12 MPH (10 KT):0
Visibility: 10 mile(s):0
Sky conditions: mostly cloudy
Temperature: 62 F (17 C)
Dew Point: 24 F (-4 C)
Relative Humidity: 23%
Pressure (altimeter): 30.04 in. Hg (1017 hPa)
Pressure tendency: 0.07 inches (2.3 hPa) higher than three hours ago
ob: MMCU 300241Z 23010KT 10SM FEW035 BKN200 17/M04 A3004 RMK SLP132 52023 954 8/508
cycle: 2

Station Type Date Time Source
MMCU TAF 2023/01/30 06:03 UTC NOAA

TAF MMCU 300500Z 3006/3106 23005KT P6SM SCT030 BKN200
FM301700 23015KT P6SM BKN200
FM310200 23008KT P6SM SCT250

Example: see airport list